Time;durP1;ratioP1;P1;durP2;ratioP2;P2;SDS_P1;SDS_P2;PMS_P1;PMS_P2;Temp;Humidity;BMP_temperature;BMP_pressure;BME280_temperature;BME280_humidity;BME280_pressure;Samples;Min_cycle;Max_cycle;Signal;HPM_P1;HPM_P2
2022/11/01 00:00:20;;;;;;;85.63;16.30;;;15.40;99.90;;;;;;5039865;28;20189;-88
2022/11/01 00:02:46;;;;;;;79.37;17.90;;;15.50;99.90;;;;;;5040444;28;20630;-88
2022/11/01 00:05:11;;;;;;;73.07;15.03;;;15.60;99.90;;;;;;5039278;28;20460;-88
2022/11/01 00:07:37;;;;;;;76.50;16.40;;;15.60;99.90;;;;;;5041044;28;20413;-88
2022/11/01 00:10:03;;;;;;;79.57;15.97;;;15.70;99.90;;;;;;5040116;28;20216;-88
2022/11/01 00:12:30;;;;;;;75.20;16.93;;;15.80;99.90;;;;;;5040429;28;20161;-88
2022/11/01 00:14:56;;;;;;;74.13;14.13;;;15.80;99.90;;;;;;5039679;28;20478;-88
2022/11/01 00:17:22;;;;;;;74.10;16.77;;;15.80;99.90;;;;;;5039715;28;20448;-88
2022/11/01 00:19:47;;;;;;;86.63;17.83;;;15.90;99.90;;;;;;5038745;28;20442;-88
2022/11/01 00:22:14;;;;;;;76.63;17.93;;;16.00;99.90;;;;;;5041240;28;20413;-88
2022/11/01 00:24:40;;;;;;;78.00;16.00;;;16.00;99.90;;;;;;5040963;28;20248;-88
2022/11/01 00:27:06;;;;;;;75.53;16.40;;;16.00;99.90;;;;;;5040399;28;20514;-88
2022/11/01 00:29:31;;;;;;;74.13;15.30;;;16.10;99.90;;;;;;5041244;28;20442;-88
2022/11/01 00:31:58;;;;;;;74.77;15.50;;;16.10;99.90;;;;;;5041173;28;20171;-88
2022/11/01 00:34:24;;;;;;;79.00;19.00;;;16.20;99.90;;;;;;5041730;28;20408;-88
2022/11/01 00:36:50;;;;;;;77.27;17.47;;;16.20;99.90;;;;;;5041281;28;20429;-88
2022/11/01 00:39:16;;;;;;;79.87;17.87;;;16.20;99.90;;;;;;5056144;28;20429;-87
2022/11/01 00:41:42;;;;;;;73.57;18.13;;;16.20;99.90;;;;;;5057431;28;20428;-87
2022/11/01 00:44:11;;;;;;;71.80;15.40;;;16.20;99.90;;;;;;5057769;28;20441;-86
2022/11/01 00:46:36;;;;;;;75.80;16.40;;;16.10;99.90;;;;;;5057699;28;20423;-87
2022/11/01 00:49:02;;;;;;;74.13;16.83;;;16.10;99.90;;;;;;5057096;28;20430;-87
2022/11/01 00:51:28;;;;;;;77.03;20.30;;;16.10;99.90;;;;;;5055595;28;20178;-87
2022/11/01 00:53:54;;;;;;;71.77;17.23;;;16.00;99.90;;;;;;5055083;28;20167;-87
2022/11/01 00:56:19;;;;;;;79.13;24.67;;;16.00;99.90;;;;;;5055092;28;20892;-87
2022/11/01 00:58:45;;;;;;;75.53;21.30;;;15.90;99.90;;;;;;5050019;28;20264;-87
2022/11/01 01:01:11;;;;;;;75.90;20.20;;;15.80;99.90;;;;;;5046996;28;20187;-87
2022/11/01 01:03:37;;;;;;;76.43;20.73;;;15.80;99.90;;;;;;5046312;28;20168;-87
2022/11/01 01:06:02;;;;;;;78.87;23.47;;;15.70;99.90;;;;;;5046885;28;20405;-86
2022/11/01 01:08:28;;;;;;;78.60;25.73;;;15.60;99.90;;;;;;5046784;28;20189;-86
2022/11/01 01:10:54;;;;;;;78.80;21.23;;;15.50;99.90;;;;;;5045951;28;20167;-87
2022/11/01 01:13:20;;;;;;;81.30;22.43;;;15.50;99.90;;;;;;5043829;28;20177;-86
2022/11/01 01:15:47;;;;;;;76.00;23.53;;;15.50;99.90;;;;;;5044635;28;20444;-87
2022/11/01 01:18:13;;;;;;;78.90;23.93;;;15.60;99.90;;;;;;5044347;28;20411;-87
2022/11/01 01:20:39;;;;;;;77.97;22.20;;;15.60;99.90;;;;;;5044075;28;20424;-86
2022/11/01 01:23:05;;;;;;;75.97;23.77;;;15.60;99.90;;;;;;5044881;28;20414;-87
2022/11/01 01:25:31;;;;;;;82.17;24.17;;;15.60;99.90;;;;;;5043906;28;20459;-87
2022/11/01 01:27:57;;;;;;;84.23;25.10;;;15.60;99.90;;;;;;5046104;28;20416;-87
2022/11/01 01:30:23;;;;;;;78.07;28.43;;;15.70;99.90;;;;;;5045497;28;20438;-87
2022/11/01 01:32:49;;;;;;;78.07;24.37;;;15.70;99.90;;;;;;5046448;28;20171;-87
2022/11/01 01:35:14;;;;;;;77.60;20.80;;;15.70;99.90;;;;;;5046679;28;20446;-86
2022/11/01 01:37:40;;;;;;;83.77;23.60;;;15.70;99.90;;;;;;5045071;28;20420;-86
2022/11/01 01:40:07;;;;;;;78.40;27.07;;;15.80;99.90;;;;;;5045958;28;20185;-87
2022/11/01 01:42:38;;;;;;;76.13;26.67;;;15.70;99.90;;;;;;5046740;28;20404;-87
2022/11/01 01:45:05;;;;;;;79.10;26.93;;;15.70;99.90;;;;;;5045336;28;20559;-87
2022/11/01 01:47:37;;;;;;;74.60;24.30;;;15.70;99.90;;;;;;5044487;28;20489;-87
2022/11/01 01:50:17;;;;;;;76.37;23.40;;;15.70;99.90;;;;;;5044552;28;20438;-87
2022/11/01 01:53:10;;;;;;;75.50;24.40;;;15.70;99.90;;;;;;5043535;28;20389;-87
2022/11/01 01:55:41;;;;;;;74.30;23.63;;;15.70;99.90;;;;;;5043710;28;20405;-87
2022/11/01 01:58:10;;;;;;;77.03;25.73;;;15.70;99.90;;;;;;5042866;28;20402;-87
2022/11/01 02:00:36;;;;;;;75.17;26.53;;;15.80;99.90;;;;;;5043031;28;20515;-87
2022/11/01 02:03:06;;;;;;;77.70;24.70;;;15.70;99.90;;;;;;5042719;28;20464;-87
2022/11/01 02:05:44;;;;;;;86.13;23.90;;;15.70;99.90;;;;;;5042040;28;20463;-87
2022/11/01 02:08:11;;;;;;;88.10;27.43;;;15.80;99.90;;;;;;5040514;28;20416;-87
2022/11/01 02:10:38;;;;;;;77.57;23.10;;;15.80;99.90;;;;;;5041257;28;20528;-87
2022/11/01 02:13:13;;;;;;;77.07;21.60;;;15.80;99.90;;;;;;5040920;28;20421;-87
2022/11/01 02:16:07;;;;;;;73.97;23.23;;;15.90;99.90;;;;;;5042378;28;20399;-87
2022/11/01 02:18:56;;;;;;;75.30;24.10;;;15.90;99.90;;;;;;5043516;28;20409;-87
2022/11/01 02:21:52;;;;;;;73.83;20.53;;;16.00;99.90;;;;;;5043783;28;20398;-87
2022/11/01 02:24:55;;;;;;;73.63;21.63;;;16.10;99.90;;;;;;5044800;28;20442;-87
2022/11/01 02:27:33;;;;;;;76.20;25.77;;;16.00;99.90;;;;;;5044125;28;20413;-87
2022/11/01 02:30:11;;;;;;;75.77;24.13;;;16.00;99.90;;;;;;5042697;28;20503;-87
2022/11/01 02:33:04;;;;;;;73.20;21.93;;;16.10;99.90;;;;;;5043048;28;20426;-87
2022/11/01 02:35:56;;;;;;;74.80;23.83;;;16.20;99.90;;;;;;5044667;28;20396;-87
2022/11/01 02:38:38;;;;;;;72.97;22.67;;;16.20;99.90;;;;;;5021900;28;20422;-87
2022/11/01 02:41:10;;;;;;;78.07;26.67;;;16.20;99.90;;;;;;5044342;28;20393;-87
2022/11/01 02:43:48;;;;;;;75.90;24.73;;;16.20;99.90;;;;;;5044050;28;20974;-87
2022/11/01 02:49:01;;;;;;;75.77;24.00;;;16.20;99.90;;;;;;5043269;28;20430;-87
2022/11/01 02:51:28;;;;;;;72.90;20.17;;;16.20;99.90;;;;;;5044178;28;20892;-87
2022/11/01 02:53:54;;;;;;;76.90;23.50;;;16.30;99.90;;;;;;5042996;28;20452;-87
2022/11/01 02:56:21;;;;;;;73.73;20.80;;;16.30;99.90;;;;;;5042734;28;20416;-87
2022/11/01 02:58:47;;;;;;;81.57;19.40;;;16.40;99.90;;;;;;5044097;28;20612;-86
2022/11/01 03:01:21;;;;;;;74.33;21.30;;;16.40;99.90;;;;;;5044425;28;20399;-88
2022/11/01 03:03:51;;;;;;;74.13;21.30;;;16.50;99.90;;;;;;5042733;28;20422;-87
2022/11/01 03:06:33;;;;;;;74.30;23.17;;;16.50;99.90;;;;;;5043456;28;20414;-87
2022/11/01 03:09:05;;;;;;;72.30;22.23;;;16.50;99.90;;;;;;5044186;28;20790;-87
2022/11/01 03:11:39;;;;;;;74.90;20.07;;;16.50;99.90;;;;;;5044938;28;20757;-88
2022/11/01 03:14:26;;;;;;;76.30;21.87;;;16.50;99.90;;;;;;5045950;28;20385;-87
2022/11/01 03:17:07;;;;;;;74.87;25.30;;;16.60;99.90;;;;;;5045297;28;20818;-87
2022/11/01 03:19:58;;;;;;;74.53;23.33;;;16.60;99.90;;;;;;5043599;28;20467;-87
2022/11/01 03:22:28;;;;;;;74.63;22.07;;;16.60;99.90;;;;;;5043967;28;20486;-87
2022/11/01 03:25:02;;;;;;;80.27;24.63;;;16.60;99.90;;;;;;5042287;28;20447;-88
2022/11/01 03:27:40;;;;;;;69.93;19.43;;;16.60;99.90;;;;;;5043662;28;20392;-86
2022/11/01 03:30:12;;;;;;;71.87;20.17;;;16.60;99.90;;;;;;5045681;28;20430;-88
2022/11/01 03:32:54;;;;;;;75.13;20.30;;;16.50;99.90;;;;;;5044755;28;20413;-87
2022/11/01 03:35:23;;;;;;;76.37;22.83;;;16.60;99.90;;;;;;5044296;28;20404;-87
2022/11/01 03:37:52;;;;;;;73.27;23.20;;;16.50;99.90;;;;;;5044816;28;20469;-88
2022/11/01 03:40:18;;;;;;;73.00;21.80;;;16.50;99.90;;;;;;5045168;28;20434;-88
2022/11/01 03:42:48;;;;;;;77.67;20.13;;;16.50;99.90;;;;;;5044580;28;20422;-87
2022/11/01 03:45:18;;;;;;;73.20;20.23;;;16.50;99.90;;;;;;5045197;28;20468;-87
2022/11/01 03:47:44;;;;;;;74.97;19.17;;;16.40;99.90;;;;;;5050728;28;20402;-87
2022/11/01 03:50:17;;;;;;;72.87;21.47;;;16.40;99.90;;;;;;5058619;28;20476;-85
2022/11/01 03:52:43;;;;;;;74.47;19.93;;;16.40;99.90;;;;;;5057898;28;20407;-87
2022/11/01 03:55:18;;;;;;;70.80;17.90;;;16.40;99.90;;;;;;5057547;28;20397;-86
2022/11/01 03:57:47;;;;;;;73.47;19.60;;;16.30;99.90;;;;;;5056221;28;20370;-87
2022/11/01 04:00:25;;;;;;;72.40;19.83;;;16.40;99.90;;;;;;5055539;28;20414;-87
2022/11/01 04:02:53;;;;;;;73.83;21.13;;;16.30;99.90;;;;;;5055095;28;20552;-87
2022/11/01 04:05:20;;;;;;;76.83;24.47;;;16.30;99.90;;;;;;5056880;28;20538;-86
2022/11/01 04:07:46;;;;;;;73.20;19.20;;;16.20;99.90;;;;;;5056758;28;20385;-87
2022/11/01 04:10:12;;;;;;;78.70;20.30;;;16.30;99.90;;;;;;5055805;28;20426;-87
2022/11/01 04:12:38;;;;;;;71.10;18.37;;;16.20;99.90;;;;;;5055217;28;20418;-87
2022/11/01 04:20:57;;;;;;;74.23;19.63;;;16.10;99.90;;;;;;5052310;28;20825;-87
2022/11/01 04:23:23;;;;;;;75.50;20.93;;;16.00;99.90;;;;;;5055386;28;20401;-87
2022/11/01 04:25:49;;;;;;;78.23;24.00;;;16.00;99.90;;;;;;5053969;28;20486;-87
2022/11/01 04:28:15;;;;;;;74.17;23.57;;;16.00;99.90;;;;;;5053110;28;20426;-87
2022/11/01 04:30:42;;;;;;;76.20;26.23;;;15.90;99.90;;;;;;5046332;28;20495;-87
2022/11/01 04:33:08;;;;;;;79.37;30.53;;;15.90;99.90;;;;;;5042789;28;20214;-88
2022/11/01 04:35:38;;;;;;;73.90;24.00;;;15.80;99.90;;;;;;5044701;28;20435;-87
2022/11/01 04:38:04;;;;;;;74.80;20.57;;;15.80;99.90;;;;;;5044827;28;20402;-88
2022/11/01 04:40:31;;;;;;;75.10;24.30;;;15.90;99.90;;;;;;5045556;28;20426;-87
2022/11/01 04:42:57;;;;;;;74.27;24.70;;;15.80;99.90;;;;;;5059882;28;20763;-88
2022/11/01 04:45:23;;;;;;;79.70;28.80;;;15.80;99.90;;;;;;5043619;28;20448;-87
2022/11/01 04:48:00;;;;;;;81.53;30.13;;;15.80;99.90;;;;;;5043700;28;20405;-87
2022/11/01 04:50:25;;;;;;;76.23;19.83;;;15.80;99.90;;;;;;5041100;28;20496;-88
2022/11/01 04:52:51;;;;;;;73.63;20.37;;;15.80;99.90;;;;;;5058497;28;20480;-88
2022/11/01 04:55:17;;;;;;;72.53;19.03;;;15.90;99.90;;;;;;5042658;28;20176;-87
2022/11/01 04:57:43;;;;;;;76.23;23.20;;;15.90;99.90;;;;;;5040856;28;20205;-87
2022/11/01 05:00:10;;;;;;;74.10;21.47;;;15.90;99.90;;;;;;5042016;28;20855;-87
2022/11/01 05:02:38;;;;;;;75.20;21.80;;;15.90;99.90;;;;;;5041815;28;20480;-87
2022/11/01 05:05:05;;;;;;;78.50;20.70;;;15.90;99.90;;;;;;5041876;28;20452;-87
2022/11/01 05:07:31;;;;;;;74.83;20.80;;;15.90;99.90;;;;;;5041333;28;20408;-87
2022/11/01 05:09:57;;;;;;;75.03;19.33;;;15.90;99.90;;;;;;5041389;28;20430;-87
2022/11/01 05:12:23;;;;;;;74.83;26.40;;;15.90;99.90;;;;;;5058430;28;20481;-88
2022/11/01 05:14:49;;;;;;;73.80;21.97;;;15.90;99.90;;;;;;5040997;28;20418;-87
2022/11/01 05:17:15;;;;;;;73.10;20.37;;;15.90;99.90;;;;;;5040904;28;20844;-87
2022/11/01 05:19:40;;;;;;;70.70;20.20;;;15.90;99.90;;;;;;5042021;28;20188;-88
2022/11/01 05:22:06;;;;;;;74.90;20.10;;;15.90;99.90;;;;;;5041447;28;20414;-87
2022/11/01 05:24:32;;;;;;;73.30;19.30;;;15.90;99.90;;;;;;5041517;28;20736;-88
2022/11/01 05:26:59;;;;;;;70.90;19.53;;;16.00;99.90;;;;;;5041171;28;20402;-87
2022/11/01 05:29:25;;;;;;;77.90;19.33;;;16.00;99.90;;;;;;5106078;23;20227;-84
2022/11/01 05:31:52;;;;;;;70.80;19.77;;;16.00;99.90;;;;;;5036879;28;20933;-84
2022/11/01 05:34:18;;;;;;;70.50;17.53;;;16.00;99.90;;;;;;5036756;28;20485;-84
2022/11/01 05:36:43;;;;;;;69.83;15.23;;;16.10;99.90;;;;;;5037120;28;20429;-84
2022/11/01 05:39:09;;;;;;;69.63;15.37;;;16.10;99.90;;;;;;5036621;28;20421;-84
2022/11/01 05:41:34;;;;;;;69.50;16.60;;;16.10;99.90;;;;;;5036525;28;20197;-84
2022/11/01 05:44:00;;;;;;;70.80;17.93;;;16.20;99.90;;;;;;5036618;28;20215;-84
2022/11/01 05:46:26;;;;;;;71.47;19.70;;;16.20;99.90;;;;;;5036578;28;20167;-84
2022/11/01 05:48:52;;;;;;;70.47;18.40;;;16.20;99.90;;;;;;5036694;28;20179;-84
2022/11/01 05:51:17;;;;;;;78.10;29.97;;;16.30;99.90;;;;;;5038888;28;20424;-84
2022/11/01 05:53:43;;;;;;;74.60;25.60;;;16.30;99.90;;;;;;5040030;28;20168;-84
2022/11/01 05:56:09;;;;;;;73.60;19.20;;;16.30;99.90;;;;;;5040813;28;20161;-84
2022/11/01 05:58:35;;;;;;;73.17;19.20;;;16.40;99.90;;;;;;5040125;28;20164;-84
2022/11/01 06:01:04;;;;;;;69.73;14.93;;;16.30;99.90;;;;;;5039753;28;20168;-84
2022/11/01 06:03:30;;;;;;;69.30;12.67;;;16.30;99.90;;;;;;5040423;28;20159;-84
2022/11/01 06:05:56;;;;;;;69.93;14.07;;;16.30;99.90;;;;;;5040080;28;20464;-84
2022/11/01 06:08:22;;;;;;;71.57;8.90;;;16.20;99.90;;;;;;5038974;28;20511;-84
2022/11/01 06:10:52;;;;;;;69.87;7.40;;;16.30;99.90;;;;;;5055343;28;20423;-84
2022/11/01 06:13:18;;;;;;;67.53;6.23;;;16.40;99.90;;;;;;5040038;28;20400;-84
2022/11/01 06:15:44;;;;;;;78.97;6.43;;;16.40;99.90;;;;;;5040825;28;20451;-84
2022/11/01 06:18:10;;;;;;;70.70;5.70;;;16.40;99.90;;;;;;5038279;28;20928;-84
2022/11/01 06:20:37;;;;;;;65.03;4.07;;;16.40;99.90;;;;;;5039861;28;20198;-84
2022/11/01 06:23:11;;;;;;;66.43;4.70;;;16.30;99.90;;;;;;5039441;28;20410;-84
2022/11/01 06:25:37;;;;;;;71.30;4.10;;;16.30;99.90;;;;;;5039693;28;20429;-84
2022/11/01 06:28:03;;;;;;;65.60;3.30;;;16.30;96.90;;;;;;5039602;28;20784;-84
2022/11/01 06:30:28;;;;;;;69.40;3.70;;;16.30;93.70;;;;;;5039434;28;20232;-84
2022/11/01 06:33:01;;;;;;;66.13;3.40;;;16.30;94.30;;;;;;5039715;28;20247;-84
2022/11/01 06:35:27;;;;;;;67.30;3.30;;;16.20;90.30;;;;;;5039826;28;20179;-84
2022/11/01 06:37:53;;;;;;;68.00;4.67;;;16.20;91.60;;;;;;5040115;28;20496;-85
2022/11/01 06:40:19;;;;;;;67.60;3.43;;;16.20;84.00;;;;;;5055010;28;20855;-84
2022/11/01 06:42:45;;;;;;;65.87;3.30;;;16.20;79.40;;;;;;5040399;28;20413;-84
2022/11/01 06:45:10;;;;;;;65.23;3.10;;;16.10;76.40;;;;;;5041278;28;20652;-85
2022/11/01 06:47:36;;;;;;;65.70;3.40;;;16.10;72.90;;;;;;5041056;28;20245;-84
2022/11/01 06:50:03;;;;;;;67.03;3.73;;;16.10;74.60;;;;;;5040520;28;20220;-84
2022/11/01 06:52:29;;;;;;;70.90;3.40;;;16.10;64.30;;;;;;5040686;28;20178;-85
2022/11/01 06:54:54;;;;;;;67.13;4.60;;;16.00;72.80;;;;;;5040328;28;20410;-84
2022/11/01 06:57:20;;;;;;;66.70;3.63;;;15.90;78.80;;;;;;5041350;28;20204;-84
2022/11/01 06:59:46;;;;;;;69.87;3.77;;;15.90;69.00;;;;;;5040793;28;20189;-84
2022/11/01 07:02:13;;;;;;;65.70;3.33;;;15.90;67.10;;;;;;5040212;28;20174;-84
2022/11/01 07:04:38;;;;;;;66.63;3.70;;;15.90;58.80;;;;;;5040664;28;20216;-84
2022/11/01 07:07:04;;;;;;;67.20;3.03;;;15.80;57.00;;;;;;5040702;28;20895;-84
2022/11/01 07:09:30;;;;;;;67.80;3.60;;;15.80;58.20;;;;;;5040095;28;20551;-84
2022/11/01 07:11:56;;;;;;;68.67;3.40;;;15.80;66.40;;;;;;5040125;28;20166;-84
2022/11/01 07:14:22;;;;;;;72.30;3.50;;;15.80;62.70;;;;;;5039940;28;20621;-84
2022/11/01 07:16:47;;;;;;;68.80;3.90;;;15.80;66.40;;;;;;5038551;28;20392;-84
2022/11/01 07:19:13;;;;;;;65.27;3.40;;;15.70;64.70;;;;;;5038245;28;20192;-83
2022/11/01 07:21:38;;;;;;;72.40;3.47;;;15.70;64.30;;;;;;5036734;28;20639;-83
2022/11/01 07:24:04;;;;;;;69.77;3.90;;;15.70;67.60;;;;;;5053671;28;20647;-83
2022/11/01 07:26:30;;;;;;;65.00;3.03;;;15.60;65.00;;;;;;5038923;28;20169;-83
2022/11/01 07:28:56;;;;;;;65.67;3.97;;;15.50;63.30;;;;;;5038572;28;20464;-83
2022/11/01 07:31:22;;;;;;;65.77;3.40;;;15.40;70.80;;;;;;5039022;28;20242;-83
2022/11/01 07:33:48;;;;;;;66.50;3.87;;;15.40;67.40;;;;;;5039064;28;20166;-83
2022/11/01 07:36:13;;;;;;;65.90;3.87;;;15.40;75.30;;;;;;5038782;28;20734;-83
2022/11/01 07:38:39;;;;;;;71.60;3.20;;;15.30;67.70;;;;;;5039241;28;20534;-83
2022/11/01 07:41:05;;;;;;;65.40;2.90;;;15.30;73.20;;;;;;5039463;28;20167;-83
2022/11/01 07:43:30;;;;;;;66.87;3.00;;;15.20;81.90;;;;;;5036662;28;20180;-83
2022/11/01 07:46:06;;;;;;;65.40;3.10;;;15.30;88.50;;;;;;5038772;28;20189;-83
2022/11/01 07:48:32;;;;;;;69.37;3.80;;;15.30;86.60;;;;;;5039840;28;20232;-83
2022/11/01 07:50:58;;;;;;;66.70;2.90;;;15.30;72.10;;;;;;5040774;28;20487;-84
2022/11/01 07:53:24;;;;;;;68.60;4.27;;;15.20;55.70;;;;;;5039719;28;20893;-84
2022/11/01 07:55:50;;;;;;;66.47;5.67;;;15.10;39.20;;;;;;5041017;28;20400;-85
2022/11/01 07:58:16;;;;;;;69.67;5.73;;;15.10;28.70;;;;;;5039240;28;20412;-84
2022/11/01 08:00:43;;;;;;;73.90;8.30;;;15.00;24.40;;;;;;5040424;28;20431;-83
2022/11/01 08:03:13;;;;;;;69.13;5.80;;;15.00;24.70;;;;;;5040074;28;20412;-83
2022/11/01 08:05:40;;;;;;;69.20;8.57;;;15.10;29.20;;;;;;5040296;28;20424;-83
2022/11/01 08:08:06;;;;;;;70.63;11.20;;;15.10;26.30;;;;;;5040452;28;20427;-84
2022/11/01 08:10:33;;;;;;;68.63;6.70;;;15.10;19.70;;;;;;5040003;28;20412;-83
2022/11/01 08:13:14;;;;;;;74.77;7.80;;;15.10;27.80;;;;;;5039076;28;20401;-83
2022/11/01 08:15:40;;;;;;;74.57;17.17;;;15.10;23.80;;;;;;5038082;28;20398;-83
2022/11/01 08:18:06;;;;;;;75.40;15.20;;;15.10;21.00;;;;;;5039672;28;20798;-83
2022/11/01 08:20:32;;;;;;;71.90;12.07;;;15.10;16.70;;;;;;5039603;28;20474;-83
2022/11/01 08:22:58;;;;;;;76.27;14.17;;;15.10;22.30;;;;;;5039166;28;20408;-83
2022/11/01 08:25:24;;;;;;;72.50;17.27;;;15.20;25.70;;;;;;5038758;28;20526;-83
2022/11/01 08:27:50;;;;;;;74.67;17.80;;;15.20;16.90;;;;;;5039207;28;20440;-83
2022/11/01 08:30:17;;;;;;;79.87;18.90;;;15.20;19.70;;;;;;5038892;28;20436;-83
2022/11/01 08:32:44;;;;;;;76.27;18.30;;;15.20;18.90;;;;;;5039068;28;20961;-83
2022/11/01 08:35:13;;;;;;;78.73;15.23;;;15.10;8.30;;;;;;5037681;28;20438;-83
2022/11/01 08:37:53;;;;;;;76.37;19.13;;;15.00;14.50;;;;;;5039279;28;20753;-83
2022/11/01 08:40:23;;;;;;;75.87;17.17;;;15.10;5.20;;;;;;5040315;28;20423;-83
2022/11/01 08:42:49;;;;;;;76.50;9.53;;;15.20;12.10;;;;;;5037843;28;20382;-83
2022/11/01 08:45:15;;;;;;;72.60;17.57;;;15.20;1.00;;;;;;5054637;28;20855;-83
2022/11/01 08:47:41;;;;;;;74.83;11.00;;;15.20;11.90;;;;;;5039348;28;20476;-83
2022/11/01 08:50:09;;;;;;;75.27;19.60;;;15.30;9.70;;;;;;5039333;28;20516;-83
2022/11/01 08:52:38;;;;;;;85.23;18.17;;;15.20;9.70;;;;;;5038789;28;20575;-83
2022/11/01 08:55:05;;;;;;;73.00;9.70;;;15.20;6.50;;;;;;5038144;28;20404;-83
2022/11/01 08:57:30;;;;;;;72.33;13.50;;;15.30;4.90;;;;;;5036439;28;20413;-83
2022/11/01 08:59:56;;;;;;;74.83;21.50;;;15.30;8.80;;;;;;5037025;28;20427;-83
2022/11/01 09:02:22;;;;;;;74.83;8.60;;;15.30;5.00;;;;;;5038906;28;20165;-83
2022/11/01 09:04:47;;;;;;;71.53;4.40;;;15.40;1.00;;;;;;5037105;28;20189;-82
2022/11/01 09:07:13;;;;;;;72.50;4.80;;;15.40;1.00;;;;;;5036388;28;20189;-83
2022/11/01 09:09:39;;;;;;;68.50;3.60;;;15.40;1.00;;;;;;5036610;28;20185;-83
2022/11/01 09:12:05;;;;;;;72.07;4.27;;;15.40;1.00;;;;;;5036650;28;20497;-83
2022/11/01 09:14:31;;;;;;;71.97;5.10;;;15.50;1.00;;;;;;5036861;28;20161;-83
2022/11/01 09:16:56;;;;;;;69.63;3.70;;;15.50;1.00;;;;;;5037099;28;20408;-83
2022/11/01 09:19:22;;;;;;;69.20;3.23;;;15.50;1.00;;;;;;5037792;28;20235;-83
2022/11/01 09:21:48;;;;;;;68.57;4.60;;;15.60;1.00;;;;;;5038059;28;20711;-83
2022/11/01 09:24:15;;;;;;;72.90;3.40;;;15.60;1.00;;;;;;5038822;28;20664;-83
2022/11/01 09:26:41;;;;;;;72.97;6.40;;;15.70;1.00;;;;;;5039830;28;20412;-83
2022/11/01 09:29:10;;;;;;;70.97;3.13;;;15.70;1.00;;;;;;5040566;28;20449;-83
2022/11/01 09:31:36;;;;;;;72.60;3.00;;;15.90;1.00;;;;;;5040202;28;20416;-83
2022/11/01 09:34:02;;;;;;;70.23;3.17;;;15.90;1.00;;;;;;5040979;28;20742;-83
2022/11/01 09:36:28;;;;;;;68.57;2.83;;;16.10;1.00;;;;;;5041044;28;20173;-84
2022/11/01 09:38:55;;;;;;;68.70;2.90;;;16.20;1.00;;;;;;5041461;28;20638;-83
2022/11/01 09:41:41;;;;;;;73.80;3.90;;;16.30;1.00;;;;;;5040194;28;20463;-83
2022/11/01 09:44:13;;;;;;;68.80;2.77;;;16.30;1.00;;;;;;5040802;28;20429;-83
2022/11/01 09:46:53;;;;;;;70.37;3.00;;;16.30;1.00;;;;;;5041141;28;20919;-83
2022/11/01 09:49:32;;;;;;;69.47;3.10;;;16.40;1.00;;;;;;5040506;28;20440;-83
2022/11/01 09:51:58;;;;;;;68.30;3.30;;;16.40;1.00;;;;;;5040015;28;20804;-83
2022/11/01 09:54:25;;;;;;;67.90;2.93;;;16.50;1.00;;;;;;5040521;28;20898;-83
2022/11/01 09:57:06;;;;;;;78.10;4.07;;;16.70;1.00;;;;;;5040517;28;20468;-83
2022/11/01 09:59:40;;;;;;;68.57;3.57;;;16.70;1.00;;;;;;5038802;28;21041;-83
2022/11/01 10:02:29;;;;;;;67.87;3.30;;;16.60;1.00;;;;;;5055734;28;20503;-83
2022/11/01 10:05:16;;;;;;;68.43;2.83;;;16.70;1.00;;;;;;5040721;28;20768;-83
2022/11/01 10:07:57;;;;;;;67.37;3.00;;;16.90;1.00;;;;;;5040830;28;20387;-83
2022/11/01 10:10:29;;;;;;;69.07;3.50;;;17.00;1.00;;;;;;5039684;28;20783;-83
2022/11/01 10:13:13;;;;;;;67.67;3.20;;;17.00;1.00;;;;;;5040201;28;20425;-83
2022/11/01 10:15:51;;;;;;;66.87;3.53;;;17.10;1.00;;;;;;5041091;28;20895;-84
2022/11/01 10:19:03;;;;;;;70.10;3.87;;;17.20;1.00;;;;;;5040175;28;20374;-85
2022/11/01 10:21:41;;;;;;;70.17;3.63;;;17.20;1.00;;;;;;5015023;28;20427;-86
2022/11/01 10:24:16;;;;;;;67.60;4.03;;;17.20;1.00;;;;;;5041001;28;20462;-85
2022/11/01 10:26:44;;;;;;;75.17;4.37;;;17.40;1.00;;;;;;5040401;28;20404;-85
2022/11/01 10:29:21;;;;;;;67.37;3.77;;;17.50;1.00;;;;;;5041526;28;20442;-84
2022/11/01 10:31:50;;;;;;;71.20;4.10;;;17.60;1.00;;;;;;5041134;28;20476;-85
2022/11/01 10:34:24;;;;;;;67.70;4.13;;;17.70;1.00;;;;;;5057527;28;20409;-85
2022/11/01 10:36:51;;;;;;;87.07;7.10;;;17.70;1.00;;;;;;5056482;28;20460;-85
2022/11/01 10:39:30;;;;;;;79.47;10.67;;;17.50;1.00;;;;;;5039937;28;20440;-85
2022/11/01 10:41:57;;;;;;;84.00;12.23;;;17.40;1.00;;;;;;5040463;28;20387;-85
2022/11/01 10:44:33;;;;;;;69.17;4.67;;;17.60;1.00;;;;;;5040442;28;20447;-85
2022/11/01 10:47:07;;;;;;;71.63;4.53;;;17.60;1.00;;;;;;5041941;28;20384;-85
2022/11/01 10:49:42;;;;;;;69.53;3.80;;;17.70;1.00;;;;;;5041935;28;20423;-85
2022/11/01 10:52:13;;;;;;;77.03;4.03;;;17.80;1.00;;;;;;5042342;28;20389;-85
2022/11/01 10:54:42;;;;;;;76.40;6.43;;;17.90;1.00;;;;;;5043645;28;20474;-85
2022/11/01 10:57:14;;;;;;;78.90;5.90;;;18.00;1.00;;;;;;5040903;28;20436;-85
2022/11/01 10:59:42;;;;;;;75.77;5.70;;;18.00;1.00;;;;;;5040805;28;20428;-86
2022/11/01 11:02:25;;;;;;;69.33;3.83;;;17.90;1.00;;;;;;5041029;28;20408;-86
2022/11/01 11:04:51;;;;;;;70.73;4.47;;;17.90;1.00;;;;;;5041407;28;20475;-86
2022/11/01 11:07:18;;;;;;;72.90;4.87;;;17.80;1.00;;;;;;5041569;28;20409;-86
2022/11/01 11:09:48;;;;;;;69.30;2.90;;;17.90;1.00;;;;;;5041879;28;20423;-85
2022/11/01 11:12:18;;;;;;;68.03;3.30;;;18.00;1.00;;;;;;5042298;28;20446;-86
2022/11/01 11:14:48;;;;;;;69.60;2.83;;;18.10;1.00;;;;;;5040181;28;20777;-85
2022/11/01 11:17:21;;;;;;;70.90;4.23;;;18.30;1.00;;;;;;5039441;28;20397;-85
2022/11/01 11:19:47;;;;;;;70.00;2.83;;;18.40;1.00;;;;;;5038925;28;20431;-86
2022/11/01 11:22:13;;;;;;;69.33;2.90;;;18.60;1.00;;;;;;5040878;28;20400;-85
2022/11/01 11:24:44;;;;;;;74.60;3.27;;;18.50;1.00;;;;;;5041034;28;20444;-86
2022/11/01 11:27:21;;;;;;;74.73;3.20;;;18.30;1.00;;;;;;5039654;28;20488;-85
2022/11/01 11:30:04;;;;;;;70.80;3.60;;;18.40;1.00;;;;;;5146591;22;20562;-85
2022/11/01 11:32:38;;;;;;;67.17;2.90;;;18.40;1.00;;;;;;5060382;28;20423;-85
2022/11/01 11:35:23;;;;;;;72.70;3.70;;;18.40;1.00;;;;;;5044486;28;20404;-85
2022/11/01 11:37:54;;;;;;;71.70;2.70;;;18.30;1.00;;;;;;5043154;28;20381;-86
2022/11/01 11:40:39;;;;;;;69.27;2.97;;;18.40;1.00;;;;;;5043492;28;20435;-85
2022/11/01 11:43:32;;;;;;;67.73;2.93;;;18.40;1.00;;;;;;5042010;28;20439;-85
2022/11/01 11:46:26;;;;;;;69.70;2.90;;;18.30;1.00;;;;;;5042969;28;20522;-85
2022/11/01 11:49:05;;;;;;;69.27;3.53;;;18.40;1.00;;;;;;5042932;28;20470;-86
2022/11/01 11:51:38;;;;;;;73.10;3.00;;;18.40;1.00;;;;;;5044141;28;20380;-86
2022/11/01 11:54:22;;;;;;;68.07;3.73;;;18.60;1.00;;;;;;5044939;28;20400;-84
2022/11/01 11:57:07;;;;;;;69.60;3.10;;;18.70;1.00;;;;;;5061295;28;20470;-85
2022/11/01 11:59:34;;;;;;;69.03;3.10;;;18.70;1.00;;;;;;5043225;28;20442;-84
2022/11/01 12:02:11;;;;;;;71.57;3.47;;;18.70;1.00;;;;;;5044694;28;20935;-84
2022/11/01 12:04:44;;;;;;;71.80;4.20;;;18.50;1.00;;;;;;5044389;28;20519;-84
2022/11/01 12:07:27;;;;;;;74.17;4.23;;;18.60;1.00;;;;;;5043774;28;20440;-84
2022/11/01 12:09:54;;;;;;;69.40;3.57;;;18.40;1.00;;;;;;5042024;28;20531;-84
2022/11/01 12:12:30;;;;;;;69.07;3.73;;;18.30;1.00;;;;;;5045593;28;20830;-84
2022/11/01 12:14:57;;;;;;;70.17;3.87;;;18.30;1.00;;;;;;5044904;28;20388;-85
2022/11/01 12:17:33;;;;;;;69.27;4.00;;;18.20;1.00;;;;;;5043525;28;20408;-86
2022/11/01 12:20:16;;;;;;;70.17;3.67;;;18.10;1.00;;;;;;5042183;28;20469;-84
2022/11/01 12:22:49;;;;;;;72.40;3.50;;;18.00;1.00;;;;;;5042711;28;20384;-87
2022/11/01 12:25:20;;;;;;;68.53;3.23;;;17.80;1.00;;;;;;5059407;28;20444;-86
2022/11/01 12:27:58;;;;;;;69.30;3.57;;;17.80;1.00;;;;;;5039219;28;20414;-87
2022/11/01 12:30:26;;;;;;;68.57;3.30;;;17.80;1.00;;;;;;5038481;28;20427;-86
2022/11/01 12:32:53;;;;;;;68.17;3.10;;;17.80;1.00;;;;;;5054339;28;20396;-86
2022/11/01 12:35:40;;;;;;;72.53;3.10;;;17.80;1.00;;;;;;5038407;28;20442;-86
2022/11/01 12:38:34;;;;;;;68.70;3.10;;;17.80;1.00;;;;;;5054897;28;20424;-86
2022/11/01 12:41:14;;;;;;;71.30;3.53;;;17.90;1.00;;;;;;5037562;28;20375;-86
2022/11/01 12:44:14;;;;;;;72.67;3.50;;;17.90;1.00;;;;;;5041843;28;20459;-88
2022/11/01 12:47:11;;;;;;;69.47;3.50;;;17.90;1.00;;;;;;5046907;28;20452;-88
2022/11/01 12:49:40;;;;;;;68.93;3.53;;;17.80;1.00;;;;;;5044118;28;20423;-88
2022/11/01 12:52:15;;;;;;;70.47;3.03;;;17.80;1.00;;;;;;5043833;28;20395;-88
2022/11/01 12:54:47;;;;;;;69.73;2.80;;;17.80;1.00;;;;;;5044954;28;20383;-88
2022/11/01 12:57:17;;;;;;;69.90;3.70;;;17.80;1.00;;;;;;5046310;28;20427;-88
2022/11/01 12:59:45;;;;;;;67.20;2.70;;;17.60;1.00;;;;;;5042557;28;20443;-88